Capitol Logistics 71




PANC
Ted Stevens Anchorage International Airport
Anchorage, Alaska
KBWI
Baltimore/Washington International Airport
Baltimore, Maryland

Route Details

Aircraft Information
Group: Boeing Long Haul
Types: B744,B763
Route Data
Demand: H
Distance: 2924nm
Duration: 5h 20m
Recm'd Route: BGQ GKN ORT NCA17 TIBOY 63N30 YFS J521 YSM 59N08 58N04 YYL J521 YTH 5494N 5290N 5087N OVBAG OTNIK MUSIT Q917 PIKSA WOZEE IZZEE TRISH3
Origin Wx: PANC 272153Z 30003KT 10SM FEW055 FEW200 20/09 A2982 RMK AO2 SLP100 T02000089
Dest. Wx: KBWI 272154Z VRB03KT 10SM BKN018 BKN026 OVC031 23/19 A2977 RMK AO2 SLP080 T02280189
Notes:

Financial History
Total Freight: 91,609lbs
Average Load: 91,609lbs/flt
Fuel Used: 69,973lbs
Avg. Fuel Used: 69,973lbs/flt
Fuel Expense: $90,965
Avg. Fuel Expense: $90,965
Avg. Fuel Cost: $1.30/lbs
Total Gross Income: $200,624
Pilot Pay: $229
Total Expenses: $21,719
Total Revenue: $86,790
Average Revenue: $200,624.00